sensor_id;sensor_type;location;lat;lon;timestamp;P1;durP1;ratioP1;P2;durP2;ratioP2
5710;SDS011;61291;52.524;13.422;2023-02-08T00:00:30;94.03;;;83.93;;
5710;SDS011;61291;52.524;13.422;2023-02-08T00:02:55;89.67;;;79.90;;
5710;SDS011;61291;52.524;13.422;2023-02-08T00:05:21;90.03;;;80.73;;
5710;SDS011;61291;52.524;13.422;2023-02-08T00:07:46;89.70;;;80.57;;
5710;SDS011;61291;52.524;13.422;2023-02-08T00:10:12;85.33;;;76.37;;
5710;SDS011;61291;52.524;13.422;2023-02-08T00:12:37;88.23;;;75.70;;
5710;SDS011;61291;52.524;13.422;2023-02-08T00:15:03;95.30;;;85.40;;
5710;SDS011;61291;52.524;13.422;2023-02-08T00:17:29;96.97;;;86.37;;
5710;SDS011;61291;52.524;13.422;2023-02-08T00:19:55;91.30;;;81.77;;
5710;SDS011;61291;52.524;13.422;2023-02-08T00:22:20;90.60;;;81.10;;
5710;SDS011;61291;52.524;13.422;2023-02-08T00:24:46;90.97;;;80.60;;
5710;SDS011;61291;52.524;13.422;2023-02-08T00:27:11;90.47;;;81.20;;
5710;SDS011;61291;52.524;13.422;2023-02-08T00:29:37;92.77;;;83.17;;
5710;SDS011;61291;52.524;13.422;2023-02-08T00:32:02;90.63;;;81.03;;
5710;SDS011;61291;52.524;13.422;2023-02-08T00:34:28;87.57;;;77.87;;
5710;SDS011;61291;52.524;13.422;2023-02-08T00:36:54;90.43;;;79.97;;
5710;SDS011;61291;52.524;13.422;2023-02-08T00:39:19;93.83;;;83.10;;
5710;SDS011;61291;52.524;13.422;2023-02-08T00:41:45;90.30;;;80.70;;
5710;SDS011;61291;52.524;13.422;2023-02-08T00:44:11;91.00;;;81.80;;
5710;SDS011;61291;52.524;13.422;2023-02-08T00:46:36;91.27;;;81.47;;
5710;SDS011;61291;52.524;13.422;2023-02-08T00:49:01;91.67;;;82.20;;
5710;SDS011;61291;52.524;13.422;2023-02-08T00:51:28;91.90;;;82.13;;
5710;SDS011;61291;52.524;13.422;2023-02-08T00:53:53;95.43;;;84.90;;
5710;SDS011;61291;52.524;13.422;2023-02-08T00:56:19;95.77;;;85.67;;
5710;SDS011;61291;52.524;13.422;2023-02-08T00:58:45;97.50;;;86.20;;
5710;SDS011;61291;52.524;13.422;2023-02-08T01:01:10;91.50;;;80.63;;
5710;SDS011;61291;52.524;13.422;2023-02-08T01:03:37;89.97;;;80.37;;
5710;SDS011;61291;52.524;13.422;2023-02-08T01:06:05;105.13;;;86.43;;
5710;SDS011;61291;52.524;13.422;2023-02-08T01:08:33;90.73;;;81.10;;
5710;SDS011;61291;52.524;13.422;2023-02-08T01:11:03;103.50;;;86.07;;
5710;SDS011;61291;52.524;13.422;2023-02-08T01:13:30;95.20;;;83.00;;
5710;SDS011;61291;52.524;13.422;2023-02-08T01:16:04;95.43;;;82.37;;
5710;SDS011;61291;52.524;13.422;2023-02-08T01:18:30;98.00;;;83.00;;
5710;SDS011;61291;52.524;13.422;2023-02-08T01:21:01;89.77;;;80.13;;
5710;SDS011;61291;52.524;13.422;2023-02-08T01:23:28;91.07;;;80.07;;
5710;SDS011;61291;52.524;13.422;2023-02-08T01:25:53;104.40;;;81.73;;
5710;SDS011;61291;52.524;13.422;2023-02-08T01:28:19;93.03;;;82.70;;
5710;SDS011;61291;52.524;13.422;2023-02-08T01:30:44;97.63;;;82.77;;
5710;SDS011;61291;52.524;13.422;2023-02-08T01:33:10;95.97;;;80.70;;
5710;SDS011;61291;52.524;13.422;2023-02-08T01:35:35;93.60;;;82.43;;
5710;SDS011;61291;52.524;13.422;2023-02-08T01:38:01;95.73;;;77.93;;
5710;SDS011;61291;52.524;13.422;2023-02-08T01:40:26;95.63;;;81.17;;
5710;SDS011;61291;52.524;13.422;2023-02-08T01:42:52;93.47;;;81.37;;
5710;SDS011;61291;52.524;13.422;2023-02-08T01:47:55;90.33;;;80.93;;
5710;SDS011;61291;52.524;13.422;2023-02-08T01:50:28;94.00;;;80.47;;
5710;SDS011;61291;52.524;13.422;2023-02-08T01:52:57;87.97;;;78.90;;
5710;SDS011;61291;52.524;13.422;2023-02-08T01:55:25;97.07;;;81.77;;
5710;SDS011;61291;52.524;13.422;2023-02-08T01:57:57;94.70;;;84.40;;
5710;SDS011;61291;52.524;13.422;2023-02-08T02:00:26;96.10;;;79.67;;
5710;SDS011;61291;52.524;13.422;2023-02-08T02:02:53;93.50;;;83.37;;
5710;SDS011;61291;52.524;13.422;2023-02-08T02:05:21;90.30;;;80.87;;
5710;SDS011;61291;52.524;13.422;2023-02-08T02:07:48;89.43;;;79.77;;
5710;SDS011;61291;52.524;13.422;2023-02-08T02:10:32;94.70;;;81.57;;
5710;SDS011;61291;52.524;13.422;2023-02-08T02:13:02;94.27;;;84.57;;
5710;SDS011;61291;52.524;13.422;2023-02-08T02:15:33;103.43;;;84.40;;
5710;SDS011;61291;52.524;13.422;2023-02-08T02:17:59;92.27;;;82.53;;
5710;SDS011;61291;52.524;13.422;2023-02-08T02:20:48;96.00;;;78.40;;
5710;SDS011;61291;52.524;13.422;2023-02-08T02:31:30;86.43;;;77.67;;
5710;SDS011;61291;52.524;13.422;2023-02-08T02:34:03;88.60;;;78.50;;
5710;SDS011;61291;52.524;13.422;2023-02-08T02:36:39;83.43;;;74.47;;
5710;SDS011;61291;52.524;13.422;2023-02-08T02:39:34;87.63;;;77.37;;
5710;SDS011;61291;52.524;13.422;2023-02-08T02:45:34;95.93;;;80.10;;
5710;SDS011;61291;52.524;13.422;2023-02-08T02:48:12;102.77;;;78.37;;
5710;SDS011;61291;52.524;13.422;2023-02-08T02:50:47;84.97;;;76.03;;
5710;SDS011;61291;52.524;13.422;2023-02-08T02:53:23;82.67;;;74.20;;
5710;SDS011;61291;52.524;13.422;2023-02-08T02:56:17;88.40;;;79.00;;
5710;SDS011;61291;52.524;13.422;2023-02-08T02:58:46;88.10;;;78.70;;
5710;SDS011;61291;52.524;13.422;2023-02-08T03:01:12;88.87;;;80.40;;
5710;SDS011;61291;52.524;13.422;2023-02-08T03:03:37;87.83;;;79.13;;
5710;SDS011;61291;52.524;13.422;2023-02-08T03:06:06;87.53;;;78.43;;
5710;SDS011;61291;52.524;13.422;2023-02-08T03:08:57;85.43;;;75.60;;
5710;SDS011;61291;52.524;13.422;2023-02-08T03:11:43;92.60;;;82.93;;
5710;SDS011;61291;52.524;13.422;2023-02-08T03:14:26;95.40;;;84.93;;
5710;SDS011;61291;52.524;13.422;2023-02-08T03:17:15;89.70;;;80.30;;
5710;SDS011;61291;52.524;13.422;2023-02-08T03:19:53;92.63;;;83.20;;
5710;SDS011;61291;52.524;13.422;2023-02-08T03:25:22;87.50;;;78.37;;
5710;SDS011;61291;52.524;13.422;2023-02-08T03:28:04;82.87;;;74.30;;
5710;SDS011;61291;52.524;13.422;2023-02-08T03:30:38;84.93;;;75.20;;
5710;SDS011;61291;52.524;13.422;2023-02-08T03:33:17;98.07;;;79.57;;
5710;SDS011;61291;52.524;13.422;2023-02-08T03:35:50;83.67;;;75.23;;
5710;SDS011;61291;52.524;13.422;2023-02-08T03:38:52;83.27;;;75.20;;
5710;SDS011;61291;52.524;13.422;2023-02-08T03:41:21;85.37;;;77.07;;
5710;SDS011;61291;52.524;13.422;2023-02-08T03:43:59;82.43;;;74.03;;
5710;SDS011;61291;52.524;13.422;2023-02-08T03:49:40;82.93;;;74.73;;
5710;SDS011;61291;52.524;13.422;2023-02-08T03:52:07;83.13;;;74.73;;
5710;SDS011;61291;52.524;13.422;2023-02-08T03:54:35;85.73;;;76.97;;
5710;SDS011;61291;52.524;13.422;2023-02-08T03:57:12;84.37;;;75.80;;
5710;SDS011;61291;52.524;13.422;2023-02-08T03:59:43;83.40;;;75.30;;
5710;SDS011;61291;52.524;13.422;2023-02-08T04:02:15;86.53;;;77.73;;
5710;SDS011;61291;52.524;13.422;2023-02-08T04:04:45;81.50;;;73.70;;
5710;SDS011;61291;52.524;13.422;2023-02-08T04:07:18;81.90;;;73.30;;
5710;SDS011;61291;52.524;13.422;2023-02-08T04:09:44;88.63;;;80.13;;
5710;SDS011;61291;52.524;13.422;2023-02-08T04:12:10;87.27;;;78.57;;
5710;SDS011;61291;52.524;13.422;2023-02-08T04:14:43;88.63;;;79.30;;
5710;SDS011;61291;52.524;13.422;2023-02-08T04:17:08;83.33;;;75.30;;
5710;SDS011;61291;52.524;13.422;2023-02-08T04:19:34;81.03;;;73.20;;
5710;SDS011;61291;52.524;13.422;2023-02-08T04:21:59;84.30;;;75.70;;
5710;SDS011;61291;52.524;13.422;2023-02-08T04:24:25;77.43;;;68.87;;
5710;SDS011;61291;52.524;13.422;2023-02-08T04:26:50;88.27;;;78.47;;
5710;SDS011;61291;52.524;13.422;2023-02-08T04:29:16;87.60;;;78.30;;
5710;SDS011;61291;52.524;13.422;2023-02-08T04:31:42;82.07;;;74.13;;
5710;SDS011;61291;52.524;13.422;2023-02-08T04:34:07;82.67;;;73.77;;
5710;SDS011;61291;52.524;13.422;2023-02-08T04:36:33;85.70;;;77.07;;
5710;SDS011;61291;52.524;13.422;2023-02-08T04:38:58;82.70;;;74.53;;
5710;SDS011;61291;52.524;13.422;2023-02-08T04:41:24;86.10;;;77.37;;
5710;SDS011;61291;52.524;13.422;2023-02-08T04:43:49;83.87;;;75.17;;
5710;SDS011;61291;52.524;13.422;2023-02-08T04:46:14;85.33;;;76.63;;
5710;SDS011;61291;52.524;13.422;2023-02-08T04:48:40;80.60;;;72.00;;
5710;SDS011;61291;52.524;13.422;2023-02-08T04:51:05;82.90;;;74.07;;
5710;SDS011;61291;52.524;13.422;2023-02-08T04:53:31;82.90;;;74.30;;
5710;SDS011;61291;52.524;13.422;2023-02-08T04:55:56;83.73;;;75.00;;
5710;SDS011;61291;52.524;13.422;2023-02-08T04:58:22;84.37;;;75.70;;
5710;SDS011;61291;52.524;13.422;2023-02-08T05:00:47;83.70;;;74.90;;
5710;SDS011;61291;52.524;13.422;2023-02-08T05:03:13;81.83;;;73.23;;
5710;SDS011;61291;52.524;13.422;2023-02-08T05:05:39;84.72;;;75.38;;
5710;SDS011;61291;52.524;13.422;2023-02-08T05:08:05;87.60;;;78.77;;
5710;SDS011;61291;52.524;13.422;2023-02-08T05:10:30;77.83;;;70.00;;
5710;SDS011;61291;52.524;13.422;2023-02-08T05:12:56;78.77;;;69.93;;
5710;SDS011;61291;52.524;13.422;2023-02-08T05:15:21;80.57;;;71.37;;
5710;SDS011;61291;52.524;13.422;2023-02-08T05:17:47;84.33;;;75.13;;
5710;SDS011;61291;52.524;13.422;2023-02-08T05:20:12;81.03;;;72.97;;
5710;SDS011;61291;52.524;13.422;2023-02-08T05:22:39;80.77;;;72.30;;
5710;SDS011;61291;52.524;13.422;2023-02-08T05:25:04;81.43;;;73.13;;
5710;SDS011;61291;52.524;13.422;2023-02-08T05:27:30;80.70;;;71.90;;
5710;SDS011;61291;52.524;13.422;2023-02-08T05:29:57;82.47;;;74.30;;
5710;SDS011;61291;52.524;13.422;2023-02-08T05:32:22;83.63;;;74.63;;
5710;SDS011;61291;52.524;13.422;2023-02-08T05:34:48;83.37;;;74.20;;
5710;SDS011;61291;52.524;13.422;2023-02-08T05:37:13;79.73;;;71.73;;
5710;SDS011;61291;52.524;13.422;2023-02-08T05:39:39;86.57;;;77.40;;
5710;SDS011;61291;52.524;13.422;2023-02-08T05:42:05;81.47;;;73.00;;
5710;SDS011;61291;52.524;13.422;2023-02-08T05:44:31;82.07;;;74.27;;
5710;SDS011;61291;52.524;13.422;2023-02-08T05:46:57;82.50;;;73.90;;
5710;SDS011;61291;52.524;13.422;2023-02-08T05:49:22;71.20;;;62.37;;
5710;SDS011;61291;52.524;13.422;2023-02-08T05:51:48;86.00;;;76.87;;
5710;SDS011;61291;52.524;13.422;2023-02-08T05:54:14;84.47;;;75.37;;
5710;SDS011;61291;52.524;13.422;2023-02-08T05:56:40;83.67;;;74.93;;
5710;SDS011;61291;52.524;13.422;2023-02-08T05:59:05;79.70;;;71.30;;
5710;SDS011;61291;52.524;13.422;2023-02-08T06:01:31;86.17;;;77.40;;
5710;SDS011;61291;52.524;13.422;2023-02-08T06:03:57;86.57;;;78.10;;
5710;SDS011;61291;52.524;13.422;2023-02-08T06:06:23;88.43;;;79.17;;
5710;SDS011;61291;52.524;13.422;2023-02-08T06:08:49;86.40;;;77.10;;
5710;SDS011;61291;52.524;13.422;2023-02-08T06:11:14;89.40;;;80.03;;
5710;SDS011;61291;52.524;13.422;2023-02-08T06:13:40;88.33;;;78.07;;
5710;SDS011;61291;52.524;13.422;2023-02-08T06:16:06;86.83;;;77.50;;
5710;SDS011;61291;52.524;13.422;2023-02-08T06:18:32;87.13;;;78.67;;
5710;SDS011;61291;52.524;13.422;2023-02-08T06:20:57;86.67;;;77.47;;
5710;SDS011;61291;52.524;13.422;2023-02-08T06:23:23;85.97;;;76.77;;
5710;SDS011;61291;52.524;13.422;2023-02-08T06:25:49;93.83;;;81.40;;
5710;SDS011;61291;52.524;13.422;2023-02-08T06:28:15;93.73;;;83.90;;
5710;SDS011;61291;52.524;13.422;2023-02-08T06:30:40;92.43;;;82.17;;
5710;SDS011;61291;52.524;13.422;2023-02-08T06:33:06;90.80;;;81.27;;
5710;SDS011;61291;52.524;13.422;2023-02-08T06:35:31;88.03;;;78.30;;
5710;SDS011;61291;52.524;13.422;2023-02-08T06:37:57;94.07;;;83.83;;
5710;SDS011;61291;52.524;13.422;2023-02-08T06:40:23;93.00;;;81.40;;
5710;SDS011;61291;52.524;13.422;2023-02-08T06:42:49;92.37;;;82.57;;
5710;SDS011;61291;52.524;13.422;2023-02-08T06:45:14;88.23;;;78.87;;
5710;SDS011;61291;52.524;13.422;2023-02-08T06:47:40;91.67;;;81.87;;
5710;SDS011;61291;52.524;13.422;2023-02-08T06:50:06;86.20;;;77.30;;
5710;SDS011;61291;52.524;13.422;2023-02-08T06:52:32;92.87;;;83.23;;
5710;SDS011;61291;52.524;13.422;2023-02-08T06:54:57;84.70;;;76.43;;
5710;SDS011;61291;52.524;13.422;2023-02-08T06:57:23;93.37;;;83.20;;
5710;SDS011;61291;52.524;13.422;2023-02-08T06:59:48;96.27;;;82.13;;
5710;SDS011;61291;52.524;13.422;2023-02-08T07:02:16;96.60;;;83.40;;
5710;SDS011;61291;52.524;13.422;2023-02-08T07:04:43;84.40;;;76.00;;
5710;SDS011;61291;52.524;13.422;2023-02-08T07:07:13;91.33;;;81.97;;
5710;SDS011;61291;52.524;13.422;2023-02-08T07:09:59;90.37;;;81.30;;
5710;SDS011;61291;52.524;13.422;2023-02-08T07:12:35;88.37;;;79.70;;
5710;SDS011;61291;52.524;13.422;2023-02-08T07:15:01;100.30;;;82.97;;
5710;SDS011;61291;52.524;13.422;2023-02-08T07:17:27;89.27;;;79.90;;
5710;SDS011;61291;52.524;13.422;2023-02-08T07:19:52;93.40;;;78.23;;
5710;SDS011;61291;52.524;13.422;2023-02-08T07:22:18;84.63;;;71.13;;
5710;SDS011;61291;52.524;13.422;2023-02-08T07:24:43;94.60;;;85.13;;
5710;SDS011;61291;52.524;13.422;2023-02-08T07:27:09;94.40;;;84.47;;
5710;SDS011;61291;52.524;13.422;2023-02-08T07:29:36;94.10;;;83.90;;
5710;SDS011;61291;52.524;13.422;2023-02-08T07:32:02;91.60;;;81.80;;
5710;SDS011;61291;52.524;13.422;2023-02-08T07:34:29;91.30;;;82.20;;
5710;SDS011;61291;52.524;13.422;2023-02-08T07:36:55;91.50;;;82.50;;
5710;SDS011;61291;52.524;13.422;2023-02-08T07:39:21;94.83;;;80.43;;
5710;SDS011;61291;52.524;13.422;2023-02-08T07:41:46;91.63;;;82.87;;
5710;SDS011;61291;52.524;13.422;2023-02-08T07:44:12;102.87;;;92.57;;
5710;SDS011;61291;52.524;13.422;2023-02-08T07:46:38;93.17;;;84.67;;
5710;SDS011;61291;52.524;13.422;2023-02-08T07:49:04;93.47;;;84.60;;
5710;SDS011;61291;52.524;13.422;2023-02-08T07:51:30;91.93;;;80.40;;
5710;SDS011;61291;52.524;13.422;2023-02-08T07:53:55;94.57;;;85.97;;
5710;SDS011;61291;52.524;13.422;2023-02-08T07:56:21;87.87;;;79.57;;
5710;SDS011;61291;52.524;13.422;2023-02-08T07:58:46;90.67;;;79.03;;
5710;SDS011;61291;52.524;13.422;2023-02-08T08:01:12;92.17;;;83.20;;
5710;SDS011;61291;52.524;13.422;2023-02-08T08:03:38;93.70;;;84.47;;
5710;SDS011;61291;52.524;13.422;2023-02-08T08:06:03;88.77;;;80.10;;
5710;SDS011;61291;52.524;13.422;2023-02-08T08:08:29;85.67;;;76.83;;
5710;SDS011;61291;52.524;13.422;2023-02-08T08:10:54;84.60;;;76.47;;
5710;SDS011;61291;52.524;13.422;2023-02-08T08:13:21;92.47;;;83.43;;
5710;SDS011;61291;52.524;13.422;2023-02-08T08:15:47;89.03;;;80.07;;
5710;SDS011;61291;52.524;13.422;2023-02-08T08:18:13;99.17;;;89.57;;
5710;SDS011;61291;52.524;13.422;2023-02-08T08:20:38;88.30;;;79.90;;
5710;SDS011;61291;52.524;13.422;2023-02-08T08:23:04;97.53;;;87.90;;
5710;SDS011;61291;52.524;13.422;2023-02-08T08:25:29;97.07;;;87.23;;
5710;SDS011;61291;52.524;13.422;2023-02-08T08:27:55;94.97;;;85.77;;
5710;SDS011;61291;52.524;13.422;2023-02-08T08:30:20;99.27;;;88.47;;
5710;SDS011;61291;52.524;13.422;2023-02-08T08:32:46;93.73;;;84.50;;
5710;SDS011;61291;52.524;13.422;2023-02-08T08:35:12;88.77;;;79.93;;
5710;SDS011;61291;52.524;13.422;2023-02-08T08:37:38;100.23;;;90.30;;
5710;SDS011;61291;52.524;13.422;2023-02-08T08:40:03;86.23;;;77.60;;
5710;SDS011;61291;52.524;13.422;2023-02-08T08:42:31;92.63;;;83.53;;
5710;SDS011;61291;52.524;13.422;2023-02-08T08:44:57;96.23;;;86.77;;
5710;SDS011;61291;52.524;13.422;2023-02-08T08:47:22;99.63;;;90.07;;
5710;SDS011;61291;52.524;13.422;2023-02-08T08:49:48;104.43;;;93.33;;
5710;SDS011;61291;52.524;13.422;2023-02-08T08:52:14;105.77;;;95.83;;
5710;SDS011;61291;52.524;13.422;2023-02-08T08:54:39;99.50;;;90.17;;
5710;SDS011;61291;52.524;13.422;2023-02-08T08:57:05;93.97;;;84.67;;
5710;SDS011;61291;52.524;13.422;2023-02-08T08:59:31;91.23;;;81.90;;
5710;SDS011;61291;52.524;13.422;2023-02-08T09:01:57;97.67;;;87.37;;
5710;SDS011;61291;52.524;13.422;2023-02-08T09:04:22;102.30;;;92.27;;
5710;SDS011;61291;52.524;13.422;2023-02-08T09:06:48;97.27;;;87.70;;
5710;SDS011;61291;52.524;13.422;2023-02-08T09:09:14;104.53;;;93.03;;
5710;SDS011;61291;52.524;13.422;2023-02-08T09:11:41;97.20;;;86.70;;
5710;SDS011;61291;52.524;13.422;2023-02-08T09:14:06;100.97;;;91.07;;
5710;SDS011;61291;52.524;13.422;2023-02-08T09:16:32;95.03;;;84.70;;
5710;SDS011;61291;52.524;13.422;2023-02-08T09:19:04;92.20;;;83.13;;
5710;SDS011;61291;52.524;13.422;2023-02-08T09:21:31;98.53;;;89.00;;
5710;SDS011;61291;52.524;13.422;2023-02-08T09:23:57;113.17;;;98.13;;
5710;SDS011;61291;52.524;13.422;2023-02-08T09:26:24;97.03;;;86.97;;
5710;SDS011;61291;52.524;13.422;2023-02-08T09:28:50;105.13;;;94.47;;
5710;SDS011;61291;52.524;13.422;2023-02-08T09:31:20;100.07;;;90.37;;
5710;SDS011;61291;52.524;13.422;2023-02-08T09:33:47;106.17;;;95.27;;
5710;SDS011;61291;52.524;13.422;2023-02-08T09:36:14;99.13;;;89.60;;
5710;SDS011;61291;52.524;13.422;2023-02-08T09:38:41;97.77;;;87.87;;
5710;SDS011;61291;52.524;13.422;2023-02-08T09:41:25;103.07;;;92.70;;
5710;SDS011;61291;52.524;13.422;2023-02-08T09:44:07;103.73;;;93.40;;
5710;SDS011;61291;52.524;13.422;2023-02-08T09:46:59;100.40;;;89.97;;
5710;SDS011;61291;52.524;13.422;2023-02-08T09:49:39;106.47;;;95.77;;
5710;SDS011;61291;52.524;13.422;2023-02-08T09:52:15;102.10;;;91.73;;
5710;SDS011;61291;52.524;13.422;2023-02-08T09:54:51;106.00;;;95.13;;
5710;SDS011;61291;52.524;13.422;2023-02-08T09:57:22;102.23;;;92.90;;
5710;SDS011;61291;52.524;13.422;2023-02-08T10:03:50;99.63;;;90.13;;
5710;SDS011;61291;52.524;13.422;2023-02-08T10:06:04;105.80;;;94.37;;
5710;SDS011;61291;52.524;13.422;2023-02-08T10:08:32;107.17;;;93.90;;
5710;SDS011;61291;52.524;13.422;2023-02-08T10:13:57;102.37;;;91.80;;
5710;SDS011;61291;52.524;13.422;2023-02-08T10:19:25;102.73;;;91.63;;
5710;SDS011;61291;52.524;13.422;2023-02-08T10:22:14;106.20;;;95.53;;
5710;SDS011;61291;52.524;13.422;2023-02-08T10:25:05;93.27;;;84.07;;
5710;SDS011;61291;52.524;13.422;2023-02-08T10:28:03;102.87;;;92.27;;
5710;SDS011;61291;52.524;13.422;2023-02-08T10:30:55;107.87;;;96.53;;
5710;SDS011;61291;52.524;13.422;2023-02-08T10:33:53;102.57;;;92.73;;
5710;SDS011;61291;52.524;13.422;2023-02-08T10:36:26;99.40;;;89.37;;
5710;SDS011;61291;52.524;13.422;2023-02-08T10:38:55;100.90;;;87.07;;
5710;SDS011;61291;52.524;13.422;2023-02-08T10:41:24;102.83;;;92.17;;
5710;SDS011;61291;52.524;13.422;2023-02-08T10:43:56;100.57;;;89.97;;
5710;SDS011;61291;52.524;13.422;2023-02-08T10:46:46;103.60;;;93.53;;
5710;SDS011;61291;52.524;13.422;2023-02-08T10:49:33;98.80;;;88.67;;
5710;SDS011;61291;52.524;13.422;2023-02-08T10:52:04;104.50;;;94.10;;
5710;SDS011;61291;52.524;13.422;2023-02-08T10:54:30;100.03;;;89.73;;
5710;SDS011;61291;52.524;13.422;2023-02-08T10:56:59;112.27;;;96.53;;
5710;SDS011;61291;52.524;13.422;2023-02-08T10:59:29;100.33;;;90.27;;
5710;SDS011;61291;52.524;13.422;2023-02-08T11:01:57;91.73;;;81.93;;
5710;SDS011;61291;52.524;13.422;2023-02-08T11:04:23;94.50;;;84.37;;
5710;SDS011;61291;52.524;13.422;2023-02-08T11:06:49;93.07;;;83.13;;
5710;SDS011;61291;52.524;13.422;2023-02-08T11:09:19;92.17;;;82.37;;
5710;SDS011;61291;52.524;13.422;2023-02-08T11:11:47;97.83;;;87.87;;
5710;SDS011;61291;52.524;13.422;2023-02-08T11:14:16;99.00;;;88.30;;
5710;SDS011;61291;52.524;13.422;2023-02-08T11:16:49;101.63;;;83.23;;
5710;SDS011;61291;52.524;13.422;2023-02-08T11:19:35;99.73;;;89.30;;
5710;SDS011;61291;52.524;13.422;2023-02-08T11:22:19;100.07;;;89.60;;
5710;SDS011;61291;52.524;13.422;2023-02-08T11:25:00;100.47;;;85.73;;
5710;SDS011;61291;52.524;13.422;2023-02-08T11:27:33;93.77;;;84.07;;
5710;SDS011;61291;52.524;13.422;2023-02-08T11:30:22;91.60;;;82.30;;
5710;SDS011;61291;52.524;13.422;2023-02-08T11:32:47;97.53;;;87.50;;
5710;SDS011;61291;52.524;13.422;2023-02-08T11:35:33;80.85;;;70.00;;
5710;SDS011;61291;52.524;13.422;2023-02-08T11:37:58;103.97;;;88.90;;
5710;SDS011;61291;52.524;13.422;2023-02-08T11:40:29;93.53;;;82.53;;
5710;SDS011;61291;52.524;13.422;2023-02-08T11:42:58;96.30;;;85.97;;
5710;SDS011;61291;52.524;13.422;2023-02-08T11:45:26;91.57;;;82.50;;
5710;SDS011;61291;52.524;13.422;2023-02-08T11:47:54;91.77;;;82.17;;
5710;SDS011;61291;52.524;13.422;2023-02-08T11:50:24;91.73;;;81.77;;
5710;SDS011;61291;52.524;13.422;2023-02-08T11:52:56;89.87;;;80.17;;
5710;SDS011;61291;52.524;13.422;2023-02-08T11:55:24;96.37;;;84.00;;
5710;SDS011;61291;52.524;13.422;2023-02-08T12:00:28;95.37;;;85.43;;
5710;SDS011;61291;52.524;13.422;2023-02-08T12:02:57;94.00;;;84.03;;
5710;SDS011;61291;52.524;13.422;2023-02-08T12:05:29;90.90;;;81.80;;
5710;SDS011;61291;52.524;13.422;2023-02-08T12:08:21;90.63;;;81.50;;
5710;SDS011;61291;52.524;13.422;2023-02-08T12:11:20;84.87;;;73.70;;
5710;SDS011;61291;52.524;13.422;2023-02-08T12:14:02;94.90;;;84.60;;
5710;SDS011;61291;52.524;13.422;2023-02-08T12:16:45;89.13;;;79.70;;
5710;SDS011;61291;52.524;13.422;2023-02-08T12:19:37;91.78;;;79.07;;
5710;SDS011;61291;52.524;13.422;2023-02-08T12:22:26;87.33;;;78.10;;
5710;SDS011;61291;52.524;13.422;2023-02-08T12:25:05;86.47;;;77.53;;
5710;SDS011;61291;52.524;13.422;2023-02-08T12:30:22;95.10;;;79.37;;
5710;SDS011;61291;52.524;13.422;2023-02-08T12:33:03;92.00;;;83.20;;
5710;SDS011;61291;52.524;13.422;2023-02-08T12:35:52;97.80;;;87.83;;
5710;SDS011;61291;52.524;13.422;2023-02-08T12:38:47;92.57;;;83.13;;
5710;SDS011;61291;52.524;13.422;2023-02-08T12:44:36;96.13;;;86.50;;
5710;SDS011;61291;52.524;13.422;2023-02-08T12:47:38;98.53;;;87.90;;
5710;SDS011;61291;52.524;13.422;2023-02-08T12:50:39;96.70;;;86.80;;
5710;SDS011;61291;52.524;13.422;2023-02-08T12:53:23;91.40;;;81.40;;
5710;SDS011;61291;52.524;13.422;2023-02-08T12:55:55;99.03;;;88.40;;
5710;SDS011;61291;52.524;13.422;2023-02-08T12:58:32;97.23;;;87.10;;
5710;SDS011;61291;52.524;13.422;2023-02-08T13:01:15;93.70;;;84.20;;
5710;SDS011;61291;52.524;13.422;2023-02-08T13:03:50;96.77;;;86.43;;
5710;SDS011;61291;52.524;13.422;2023-02-08T13:06:22;101.13;;;90.60;;
5710;SDS011;61291;52.524;13.422;2023-02-08T13:08:54;97.97;;;87.57;;
5710;SDS011;61291;52.524;13.422;2023-02-08T13:11:29;85.77;;;76.87;;
5710;SDS011;61291;52.524;13.422;2023-02-08T13:14:04;98.00;;;88.40;;
5710;SDS011;61291;52.524;13.422;2023-02-08T13:16:44;93.80;;;84.00;;
5710;SDS011;61291;52.524;13.422;2023-02-08T13:19:37;97.43;;;86.70;;
5710;SDS011;61291;52.524;13.422;2023-02-08T13:22:18;94.60;;;85.37;;
5710;SDS011;61291;52.524;13.422;2023-02-08T13:24:45;98.63;;;88.87;;
5710;SDS011;61291;52.524;13.422;2023-02-08T13:27:14;95.90;;;85.97;;
5710;SDS011;61291;52.524;13.422;2023-02-08T13:29:41;96.43;;;86.73;;
5710;SDS011;61291;52.524;13.422;2023-02-08T13:34:44;97.40;;;87.37;;
5710;SDS011;61291;52.524;13.422;2023-02-08T13:37:23;94.23;;;84.13;;
5710;SDS011;61291;52.524;13.422;2023-02-08T13:40:37;96.20;;;86.50;;
5710;SDS011;61291;52.524;13.422;2023-02-08T13:42:49;92.27;;;83.20;;
5710;SDS011;61291;52.524;13.422;2023-02-08T13:45:23;91.83;;;82.50;;
5710;SDS011;61291;52.524;13.422;2023-02-08T13:47:56;93.63;;;84.33;;
5710;SDS011;61291;52.524;13.422;2023-02-08T13:52:59;99.27;;;88.57;;
5710;SDS011;61291;52.524;13.422;2023-02-08T14:01:00;92.70;;;83.40;;
5710;SDS011;61291;52.524;13.422;2023-02-08T14:03:33;89.83;;;80.70;;
5710;SDS011;61291;52.524;13.422;2023-02-08T14:06:02;92.87;;;83.50;;
5710;SDS011;61291;52.524;13.422;2023-02-08T14:08:50;84.23;;;75.60;;
5710;SDS011;61291;52.524;13.422;2023-02-08T14:14:16;94.03;;;82.10;;
5710;SDS011;61291;52.524;13.422;2023-02-08T14:19:29;95.00;;;84.60;;
5710;SDS011;61291;52.524;13.422;2023-02-08T14:22:12;95.33;;;85.53;;
5710;SDS011;61291;52.524;13.422;2023-02-08T14:24:42;88.97;;;79.50;;
5710;SDS011;61291;52.524;13.422;2023-02-08T14:27:19;87.50;;;78.87;;
5710;SDS011;61291;52.524;13.422;2023-02-08T14:32:31;89.53;;;80.33;;
5710;SDS011;61291;52.524;13.422;2023-02-08T14:35:01;89.73;;;79.50;;
5710;SDS011;61291;52.524;13.422;2023-02-08T14:37:31;88.77;;;80.37;;
5710;SDS011;61291;52.524;13.422;2023-02-08T14:42:59;85.27;;;76.93;;
5710;SDS011;61291;52.524;13.422;2023-02-08T14:47:59;83.87;;;75.00;;
5710;SDS011;61291;52.524;13.422;2023-02-08T14:50:41;85.53;;;76.00;;
5710;SDS011;61291;52.524;13.422;2023-02-08T14:53:38;85.73;;;77.53;;
5710;SDS011;61291;52.524;13.422;2023-02-08T14:58:34;88.37;;;79.27;;
5710;SDS011;61291;52.524;13.422;2023-02-08T15:01:05;86.83;;;78.80;;
5710;SDS011;61291;52.524;13.422;2023-02-08T15:03:37;88.40;;;79.60;;
5710;SDS011;61291;52.524;13.422;2023-02-08T15:06:21;93.47;;;83.70;;
5710;SDS011;61291;52.524;13.422;2023-02-08T15:09:26;88.17;;;78.10;;
5710;SDS011;61291;52.524;13.422;2023-02-08T15:12:03;87.80;;;79.63;;
5710;SDS011;61291;52.524;13.422;2023-02-08T15:14:51;76.82;;;68.72;;
5710;SDS011;61291;52.524;13.422;2023-02-08T15:17:20;89.20;;;80.43;;
5710;SDS011;61291;52.524;13.422;2023-02-08T15:19:54;91.57;;;82.73;;
5710;SDS011;61291;52.524;13.422;2023-02-08T15:24:54;78.63;;;71.17;;
5710;SDS011;61291;52.524;13.422;2023-02-08T15:27:23;85.90;;;77.33;;
5710;SDS011;61291;52.524;13.422;2023-02-08T15:29:51;91.37;;;82.73;;
5710;SDS011;61291;52.524;13.422;2023-02-08T15:32:19;91.57;;;81.77;;
5710;SDS011;61291;52.524;13.422;2023-02-08T15:34:51;81.43;;;73.17;;
5710;SDS011;61291;52.524;13.422;2023-02-08T15:37:22;83.00;;;74.30;;
5710;SDS011;61291;52.524;13.422;2023-02-08T15:39:52;82.20;;;74.07;;
5710;SDS011;61291;52.524;13.422;2023-02-08T15:42:20;83.83;;;75.43;;
5710;SDS011;61291;52.524;13.422;2023-02-08T15:44:48;84.70;;;75.80;;
5710;SDS011;61291;52.524;13.422;2023-02-08T15:47:18;87.47;;;79.20;;
5710;SDS011;61291;52.524;13.422;2023-02-08T15:49:51;86.33;;;77.63;;